sensor_id;sensor_type;location;lat;lon;timestamp;pressure;altitude;pressure_sealevel;temperature;humidity
44001;BME280;29660;42.892;24.710;2024-03-23T00:54:00;97108.03;;;1.02;100.00
44001;BME280;29660;42.892;24.710;2024-03-23T00:59:21;97101.34;;;1.06;100.00
44001;BME280;29660;42.892;24.710;2024-03-23T01:04:43;97052.56;;;0.68;100.00
44001;BME280;29660;42.892;24.710;2024-03-23T01:10:05;96934.72;;;-0.12;100.00
44001;BME280;29660;42.892;24.710;2024-03-23T01:15:26;97096.13;;;0.88;100.00
44001;BME280;29660;42.892;24.710;2024-03-23T01:20:47;96425.59;;;-3.43;100.00
44001;BME280;29660;42.892;24.710;2024-03-23T01:26:08;97103.34;;;0.74;100.00
44001;BME280;29660;42.892;24.710;2024-03-23T01:31:30;97087.53;;;0.81;100.00
44001;BME280;29660;42.892;24.710;2024-03-23T01:36:51;97038.94;;;0.60;100.00
44001;BME280;29660;42.892;24.710;2024-03-23T01:42:12;97104.88;;;0.82;100.00
44001;BME280;29660;42.892;24.710;2024-03-23T01:47:34;97091.19;;;0.80;100.00
44001;BME280;29660;42.892;24.710;2024-03-23T01:52:55;97091.63;;;0.77;100.00
44001;BME280;29660;42.892;24.710;2024-03-23T01:58:16;96993.47;;;0.17;100.00
44001;BME280;29660;42.892;24.710;2024-03-23T02:03:37;97038.91;;;0.30;100.00
44001;BME280;29660;42.892;24.710;2024-03-23T02:08:59;96941.81;;;-0.31;100.00
44001;BME280;29660;42.892;24.710;2024-03-23T02:14:20;97084.56;;;0.59;100.00
44001;BME280;29660;42.892;24.710;2024-03-23T02:19:42;97089.81;;;0.59;100.00
44001;BME280;29660;42.892;24.710;2024-03-23T02:25:04;97135.81;;;0.61;100.00
44001;BME280;29660;42.892;24.710;2024-03-23T02:30:26;97110.25;;;0.57;100.00
44001;BME280;29660;42.892;24.710;2024-03-23T02:35:47;97084.31;;;0.48;100.00
44001;BME280;29660;42.892;24.710;2024-03-23T02:41:08;97084.06;;;0.50;100.00
44001;BME280;29660;42.892;24.710;2024-03-23T02:46:30;97085.53;;;0.46;100.00
44001;BME280;29660;42.892;24.710;2024-03-23T02:51:51;97091.66;;;0.40;100.00
44001;BME280;29660;42.892;24.710;2024-03-23T02:57:12;97081.19;;;0.40;100.00
44001;BME280;29660;42.892;24.710;2024-03-23T03:02:33;97072.06;;;0.24;100.00
44001;BME280;29660;42.892;24.710;2024-03-23T03:07:55;96326.47;;;-4.50;100.00
44001;BME280;29660;42.892;24.710;2024-03-23T03:13:16;96945.72;;;-0.58;100.00
44001;BME280;29660;42.892;24.710;2024-03-23T03:18:37;97032.78;;;-0.01;100.00
44001;BME280;29660;42.892;24.710;2024-03-23T03:23:58;97083.06;;;0.33;100.00
44001;BME280;29660;42.892;24.710;2024-03-23T03:29:19;97088.81;;;0.41;100.00
44001;BME280;29660;42.892;24.710;2024-03-23T03:34:41;97089.19;;;0.27;100.00
44001;BME280;29660;42.892;24.710;2024-03-23T03:40:02;97090.19;;;0.26;100.00
44001;BME280;29660;42.892;24.710;2024-03-23T03:45:24;97116.50;;;0.19;100.00
44001;BME280;29660;42.892;24.710;2024-03-23T03:50:45;96821.16;;;-1.53;100.00
44001;BME280;29660;42.892;24.710;2024-03-23T03:56:06;97091.53;;;0.16;100.00
44001;BME280;29660;42.892;24.710;2024-03-23T04:01:27;97088.44;;;0.19;100.00
44001;BME280;29660;42.892;24.710;2024-03-23T04:06:48;97086.66;;;0.20;100.00
44001;BME280;29660;42.892;24.710;2024-03-23T04:12:10;97088.97;;;0.28;100.00
44001;BME280;29660;42.892;24.710;2024-03-23T04:17:31;97088.91;;;0.16;100.00
44001;BME280;29660;42.892;24.710;2024-03-23T04:22:53;96899.50;;;-1.14;100.00
44001;BME280;29660;42.892;24.710;2024-03-23T04:28:15;97090.41;;;0.06;100.00
44001;BME280;29660;42.892;24.710;2024-03-23T04:33:36;97084.09;;;0.13;100.00
44001;BME280;29660;42.892;24.710;2024-03-23T04:38:59;97085.47;;;0.34;100.00
44001;BME280;29660;42.892;24.710;2024-03-23T04:44:20;96979.56;;;-0.20;100.00
44001;BME280;29660;42.892;24.710;2024-03-23T04:49:42;97031.78;;;0.18;100.00
44001;BME280;29660;42.892;24.710;2024-03-23T04:55:03;96946.75;;;-0.22;100.00
44001;BME280;29660;42.892;24.710;2024-03-23T05:00:25;96665.75;;;-1.82;100.00
44001;BME280;29660;42.892;24.710;2024-03-23T05:05:50;97074.88;;;0.89;100.00
44001;BME280;29660;42.892;24.710;2024-03-23T05:11:11;97008.38;;;0.65;100.00
44001;BME280;29660;42.892;24.710;2024-03-23T05:16:33;97051.78;;;1.10;100.00
44001;BME280;29660;42.892;24.710;2024-03-23T05:21:54;97067.06;;;1.55;100.00
44001;BME280;29660;42.892;24.710;2024-03-23T05:27:15;97066.63;;;1.81;100.00
44001;BME280;29660;42.892;24.710;2024-03-23T05:32:36;97033.94;;;1.77;100.00
44001;BME280;29660;42.892;24.710;2024-03-23T05:37:59;97053.91;;;2.13;100.00
44001;BME280;29660;42.892;24.710;2024-03-23T05:43:21;96847.16;;;1.08;100.00
44001;BME280;29660;42.892;24.710;2024-03-23T05:48:42;97058.31;;;2.77;100.00
44001;BME280;29660;42.892;24.710;2024-03-23T05:54:04;97044.91;;;3.07;98.48
44001;BME280;29660;42.892;24.710;2024-03-23T05:59:25;96985.88;;;3.08;94.53
44001;BME280;29660;42.892;24.710;2024-03-23T06:04:47;97039.53;;;3.69;93.00
44001;BME280;29660;42.892;24.710;2024-03-23T06:10:09;96954.56;;;3.45;95.74
44001;BME280;29660;42.892;24.710;2024-03-23T06:15:30;96998.88;;;4.04;94.14
44001;BME280;29660;42.892;24.710;2024-03-23T06:20:52;96943.72;;;4.02;92.37
44001;BME280;29660;42.892;24.710;2024-03-23T06:26:14;97016.75;;;4.89;86.16
44001;BME280;29660;42.892;24.710;2024-03-23T06:31:35;97007.81;;;5.23;80.92
44001;BME280;29660;42.892;24.710;2024-03-23T06:36:57;97005.97;;;5.60;80.78
44001;BME280;29660;42.892;24.710;2024-03-23T06:42:18;96994.84;;;6.01;73.41
44001;BME280;29660;42.892;24.710;2024-03-23T06:47:39;96986.81;;;6.43;66.16
44001;BME280;29660;42.892;24.710;2024-03-23T06:53:00;96170.66;;;1.56;62.64
44001;BME280;29660;42.892;24.710;2024-03-23T06:58:23;96898.94;;;6.77;64.29
44001;BME280;29660;42.892;24.710;2024-03-23T07:03:45;96965.41;;;7.77;56.99
44001;BME280;29660;42.892;24.710;2024-03-23T07:09:06;96964.22;;;8.24;53.97
44001;BME280;29660;42.892;24.710;2024-03-23T07:14:27;96948.31;;;8.74;52.54
44001;BME280;29660;42.892;24.710;2024-03-23T07:19:48;96930.41;;;9.24;49.42
44001;BME280;29660;42.892;24.710;2024-03-23T07:25:09;96868.13;;;9.25;47.54
44001;BME280;29660;42.892;24.710;2024-03-23T07:30:30;96932.81;;;10.21;47.43
44001;BME280;29660;42.892;24.710;2024-03-23T07:35:51;96931.16;;;10.68;43.27
44001;BME280;29660;42.892;24.710;2024-03-23T07:41:18;96848.63;;;10.77;41.99
44001;BME280;29660;42.892;24.710;2024-03-23T07:46:39;96922.13;;;11.81;42.97
44001;BME280;29660;42.892;24.710;2024-03-23T07:52:01;96906.78;;;12.28;41.95
44001;BME280;29660;42.892;24.710;2024-03-23T07:57:22;96894.47;;;12.77;41.67
44001;BME280;29660;42.892;24.710;2024-03-23T08:02:43;96889.91;;;13.22;37.74
44001;BME280;29660;42.892;24.710;2024-03-23T08:08:04;96814.69;;;12.79;38.13
44001;BME280;29660;42.892;24.710;2024-03-23T08:13:26;96849.53;;;13.81;37.99
44001;BME280;29660;42.892;24.710;2024-03-23T08:18:47;96883.56;;;14.29;35.93
44001;BME280;29660;42.892;24.710;2024-03-23T08:24:09;96881.72;;;14.73;37.37
44001;BME280;29660;42.892;24.710;2024-03-23T08:29:30;96760.50;;;14.28;36.91
44001;BME280;29660;42.892;24.710;2024-03-23T08:34:51;96863.69;;;15.26;36.30
44001;BME280;29660;42.892;24.710;2024-03-23T08:40:12;96868.88;;;15.31;35.22
44001;BME280;29660;42.892;24.710;2024-03-23T08:45:33;96888.13;;;15.41;35.05
44001;BME280;29660;42.892;24.710;2024-03-23T08:56:23;96452.81;;;13.25;33.56
44001;BME280;29660;42.892;24.710;2024-03-23T09:01:44;96846.72;;;16.10;34.40
44001;BME280;29660;42.892;24.710;2024-03-23T09:07:05;96807.31;;;16.14;34.68
44001;BME280;29660;42.892;24.710;2024-03-23T09:12:26;96839.63;;;16.35;33.19
44001;BME280;29660;42.892;24.710;2024-03-23T09:17:47;96768.91;;;16.26;33.88
44001;BME280;29660;42.892;24.710;2024-03-23T09:23:08;96815.19;;;16.82;32.96
44001;BME280;29660;42.892;24.710;2024-03-23T09:28:30;96809.72;;;16.70;31.80
44001;BME280;29660;42.892;24.710;2024-03-23T09:33:51;96803.09;;;16.67;32.61
44001;BME280;29660;42.892;24.710;2024-03-23T09:39:12;96792.97;;;16.64;31.07
44001;BME280;29660;42.892;24.710;2024-03-23T09:44:35;96789.50;;;16.64;30.71
44001;BME280;29660;42.892;24.710;2024-03-23T09:49:56;96784.69;;;16.90;31.48
44001;BME280;29660;42.892;24.710;2024-03-23T09:55:18;96776.38;;;16.83;31.29
44001;BME280;29660;42.892;24.710;2024-03-23T10:00:39;96771.75;;;16.84;30.71
44001;BME280;29660;42.892;24.710;2024-03-23T10:06:02;96760.94;;;17.17;30.74
44001;BME280;29660;42.892;24.710;2024-03-23T10:11:23;96645.75;;;16.44;31.06
44001;BME280;29660;42.892;24.710;2024-03-23T10:16:46;96741.63;;;17.39;30.77
44001;BME280;29660;42.892;24.710;2024-03-23T10:22:09;96746.59;;;17.50;30.26
44001;BME280;29660;42.892;24.710;2024-03-23T10:27:30;96730.72;;;17.60;30.39
44001;BME280;29660;42.892;24.710;2024-03-23T10:32:51;96658.75;;;17.00;30.59
44001;BME280;29660;42.892;24.710;2024-03-23T10:38:12;96645.53;;;16.82;30.37
44001;BME280;29660;42.892;24.710;2024-03-23T10:43:36;96706.47;;;17.24;30.38
44001;BME280;29660;42.892;24.710;2024-03-23T10:48:57;96696.94;;;17.38;30.15
44001;BME280;29660;42.892;24.710;2024-03-23T10:54:19;96680.00;;;17.38;28.69
44001;BME280;29660;42.892;24.710;2024-03-23T10:59:41;96638.25;;;17.60;28.88
44001;BME280;29660;42.892;24.710;2024-03-23T11:10:46;96656.00;;;17.85;28.58
44001;BME280;29660;42.892;24.710;2024-03-23T11:16:27;96537.72;;;17.19;28.98
44001;BME280;29660;42.892;24.710;2024-03-23T11:21:54;96632.34;;;17.95;29.67
44001;BME280;29660;42.892;24.710;2024-03-23T11:27:16;96583.97;;;17.74;29.05
44001;BME280;29660;42.892;24.710;2024-03-23T11:32:37;96623.63;;;17.85;29.28
44001;BME280;29660;42.892;24.710;2024-03-23T11:43:25;96598.03;;;18.23;28.91
44001;BME280;29660;42.892;24.710;2024-03-23T11:48:50;96592.41;;;18.28;29.63
44001;BME280;29660;42.892;24.710;2024-03-23T11:54:12;96576.81;;;18.53;29.17
44001;BME280;29660;42.892;24.710;2024-03-23T11:59:40;96572.31;;;18.73;29.19
44001;BME280;29660;42.892;24.710;2024-03-23T12:05:14;96558.22;;;19.15;28.99
44001;BME280;29660;42.892;24.710;2024-03-23T12:10:35;96548.84;;;18.93;28.20
44001;BME280;29660;42.892;24.710;2024-03-23T12:16:12;96427.91;;;18.35;28.09
44001;BME280;29660;42.892;24.710;2024-03-23T12:21:34;96478.38;;;18.82;28.89
44001;BME280;29660;42.892;24.710;2024-03-23T12:27:08;96508.72;;;19.30;28.18
44001;BME280;29660;42.892;24.710;2024-03-23T12:32:29;96502.88;;;19.28;28.07
44001;BME280;29660;42.892;24.710;2024-03-23T12:37:50;96524.28;;;19.18;27.77
44001;BME280;29660;42.892;24.710;2024-03-23T12:43:11;96491.25;;;19.08;28.53
44001;BME280;29660;42.892;24.710;2024-03-23T12:48:32;96420.97;;;18.54;28.55
44001;BME280;29660;42.892;24.710;2024-03-23T12:53:53;96327.50;;;17.79;28.15
44001;BME280;29660;42.892;24.710;2024-03-23T12:59:15;96483.94;;;18.74;28.32
44001;BME280;29660;42.892;24.710;2024-03-23T13:04:37;96382.75;;;18.01;28.75
44001;BME280;29660;42.892;24.710;2024-03-23T13:09:58;96470.47;;;18.26;27.77
44001;BME280;29660;42.892;24.710;2024-03-23T13:15:19;96462.56;;;18.33;28.22
44001;BME280;29660;42.892;24.710;2024-03-23T13:20:41;96298.56;;;17.00;27.87
44001;BME280;29660;42.892;24.710;2024-03-23T13:26:02;96469.28;;;18.08;28.78
44001;BME280;29660;42.892;24.710;2024-03-23T13:31:24;96453.50;;;18.26;29.24
44001;BME280;29660;42.892;24.710;2024-03-23T13:36:46;96460.53;;;18.30;28.87
44001;BME280;29660;42.892;24.710;2024-03-23T13:42:07;96449.13;;;18.37;29.13
44001;BME280;29660;42.892;24.710;2024-03-23T13:47:30;96438.53;;;18.28;29.69
44001;BME280;29660;42.892;24.710;2024-03-23T13:52:51;96330.72;;;17.53;29.64
44001;BME280;29660;42.892;24.710;2024-03-23T13:58:12;96441.06;;;18.21;29.89
44001;BME280;29660;42.892;24.710;2024-03-23T14:03:33;96430.94;;;18.18;29.58
44001;BME280;29660;42.892;24.710;2024-03-23T14:08:54;95923.06;;;14.83;30.27
44001;BME280;29660;42.892;24.710;2024-03-23T14:14:15;96340.88;;;17.59;29.55
44001;BME280;29660;42.892;24.710;2024-03-23T14:19:39;96406.75;;;18.22;28.83
44001;BME280;29660;42.892;24.710;2024-03-23T14:25:00;96357.06;;;17.91;28.52
44001;BME280;29660;42.892;24.710;2024-03-23T14:30:21;96401.25;;;18.18;29.56
44001;BME280;29660;42.892;24.710;2024-03-23T14:35:43;96403.97;;;18.18;30.24
44001;BME280;29660;42.892;24.710;2024-03-23T14:41:04;96401.25;;;18.18;30.78
44001;BME280;29660;42.892;24.710;2024-03-23T14:46:26;96304.19;;;17.55;30.42
44001;BME280;29660;42.892;24.710;2024-03-23T14:51:47;96400.88;;;18.00;30.06
44001;BME280;29660;42.892;24.710;2024-03-23T14:57:08;96320.00;;;17.56;31.28
44001;BME280;29660;42.892;24.710;2024-03-23T15:02:32;96275.75;;;17.10;32.47
44001;BME280;29660;42.892;24.710;2024-03-23T15:07:53;96381.53;;;17.82;32.71
44001;BME280;29660;42.892;24.710;2024-03-23T15:13:14;96381.69;;;17.74;32.79
44001;BME280;29660;42.892;24.710;2024-03-23T15:18:36;96174.03;;;16.31;33.33
44001;BME280;29660;42.892;24.710;2024-03-23T15:23:57;96374.00;;;17.60;33.18
44001;BME280;29660;42.892;24.710;2024-03-23T15:29:20;96375.50;;;17.41;33.80
44001;BME280;29660;42.892;24.710;2024-03-23T15:34:43;96372.16;;;17.32;34.16
44001;BME280;29660;42.892;24.710;2024-03-23T15:40:05;96257.84;;;16.45;34.53
44001;BME280;29660;42.892;24.710;2024-03-23T15:45:27;96373.75;;;17.05;34.99
44001;BME280;29660;42.892;24.710;2024-03-23T15:50:58;96356.91;;;16.80;35.59
44001;BME280;29660;42.892;24.710;2024-03-23T15:56:20;96373.06;;;16.80;35.71
44001;BME280;29660;42.892;24.710;2024-03-23T16:01:41;96264.25;;;16.01;36.14
44001;BME280;29660;42.892;24.710;2024-03-23T16:07:04;96373.53;;;16.58;36.46
44001;BME280;29660;42.892;24.710;2024-03-23T16:12:26;96307.97;;;15.98;37.09
44001;BME280;29660;42.892;24.710;2024-03-23T16:17:47;96300.34;;;15.75;37.56
44001;BME280;29660;42.892;24.710;2024-03-23T16:23:08;96375.28;;;16.13;37.54
44001;BME280;29660;42.892;24.710;2024-03-23T16:33:51;96371.13;;;15.79;38.27
44001;BME280;29660;42.892;24.710;2024-03-23T16:39:13;96378.28;;;15.63;38.92
44001;BME280;29660;42.892;24.710;2024-03-23T16:44:36;96385.63;;;15.41;39.38
44001;BME280;29660;42.892;24.710;2024-03-23T16:49:57;96346.03;;;15.05;39.60
44001;BME280;29660;42.892;24.710;2024-03-23T16:55:19;95949.75;;;12.32;39.71
44001;BME280;29660;42.892;24.710;2024-03-23T17:00:41;96286.97;;;14.30;40.35
44001;BME280;29660;42.892;24.710;2024-03-23T17:06:04;96327.53;;;14.29;41.24
44001;BME280;29660;42.892;24.710;2024-03-23T17:11:25;96271.34;;;13.61;42.21
44001;BME280;29660;42.892;24.710;2024-03-23T17:16:47;96392.09;;;14.23;42.06
44001;BME280;29660;42.892;24.710;2024-03-23T17:22:08;96388.09;;;14.09;42.17
44001;BME280;29660;42.892;24.710;2024-03-23T17:27:29;96373.50;;;13.89;42.06
44001;BME280;29660;42.892;24.710;2024-03-23T17:32:50;96388.69;;;13.85;42.34
44001;BME280;29660;42.892;24.710;2024-03-23T17:38:12;96322.38;;;13.26;42.72
44001;BME280;29660;42.892;24.710;2024-03-23T17:43:33;96396.59;;;13.72;42.21
44001;BME280;29660;42.892;24.710;2024-03-23T17:48:55;96003.59;;;10.96;42.72
44001;BME280;29660;42.892;24.710;2024-03-23T17:54:16;96401.59;;;13.44;43.38
44001;BME280;29660;42.892;24.710;2024-03-23T17:59:40;96369.44;;;13.44;44.53
44001;BME280;29660;42.892;24.710;2024-03-23T18:05:01;96302.16;;;12.73;43.13
44001;BME280;29660;42.892;24.710;2024-03-23T18:10:24;96303.13;;;12.68;43.30
44001;BME280;29660;42.892;24.710;2024-03-23T18:15:45;96398.31;;;13.04;44.78
44001;BME280;29660;42.892;24.710;2024-03-23T18:21:07;96399.91;;;12.79;46.70
44001;BME280;29660;42.892;24.710;2024-03-23T18:26:28;96417.81;;;12.61;47.08
44001;BME280;29660;42.892;24.710;2024-03-23T18:31:49;96403.50;;;12.31;48.10
44001;BME280;29660;42.892;24.710;2024-03-23T18:37:11;96409.88;;;12.13;48.94
44001;BME280;29660;42.892;24.710;2024-03-23T18:42:32;96358.97;;;11.69;49.01
44001;BME280;29660;42.892;24.710;2024-03-23T18:47:53;96046.22;;;9.37;51.05
44001;BME280;29660;42.892;24.710;2024-03-23T18:53:14;96398.97;;;11.52;51.50
44001;BME280;29660;42.892;24.710;2024-03-23T18:58:35;96357.59;;;10.87;52.76
44001;BME280;29660;42.892;24.710;2024-03-23T19:03:58;96309.59;;;10.42;55.20
44001;BME280;29660;42.892;24.710;2024-03-23T19:09:19;96405.75;;;10.82;56.99
44001;BME280;29660;42.892;24.710;2024-03-23T19:14:40;96375.41;;;10.55;58.75
44001;BME280;29660;42.892;24.710;2024-03-23T19:20:01;96385.81;;;10.43;60.42
44001;BME280;29660;42.892;24.710;2024-03-23T19:25:25;96271.00;;;9.53;60.79
44001;BME280;29660;42.892;24.710;2024-03-23T19:30:48;96304.78;;;9.67;62.07
44001;BME280;29660;42.892;24.710;2024-03-23T19:36:10;95951.22;;;7.13;63.06
44001;BME280;29660;42.892;24.710;2024-03-23T19:41:33;96357.34;;;9.89;64.59
44001;BME280;29660;42.892;24.710;2024-03-23T19:46:54;96384.69;;;9.80;65.04
44001;BME280;29660;42.892;24.710;2024-03-23T19:52:15;96338.91;;;9.51;66.40
44001;BME280;29660;42.892;24.710;2024-03-23T19:57:36;96372.34;;;9.57;68.57
44001;BME280;29660;42.892;24.710;2024-03-23T20:02:58;96369.06;;;9.46;67.12
44001;BME280;29660;42.892;24.710;2024-03-23T20:08:19;96353.50;;;9.26;67.59
44001;BME280;29660;42.892;24.710;2024-03-23T20:13:40;96339.47;;;9.06;66.43
44001;BME280;29660;42.892;24.710;2024-03-23T20:19:02;96366.47;;;9.14;67.66
44001;BME280;29660;42.892;24.710;2024-03-23T20:24:25;96231.78;;;8.25;70.09
44001;BME280;29660;42.892;24.710;2024-03-23T20:29:46;96351.34;;;8.95;69.27
44001;BME280;29660;42.892;24.710;2024-03-23T20:35:08;96318.59;;;8.48;69.81
44001;BME280;29660;42.892;24.710;2024-03-23T20:40:31;96347.66;;;8.77;70.78
44001;BME280;29660;42.892;24.710;2024-03-23T20:45:57;96238.72;;;8.07;69.78
44001;BME280;29660;42.892;24.710;2024-03-23T20:51:18;96347.13;;;8.62;71.58
44001;BME280;29660;42.892;24.710;2024-03-23T20:56:40;96329.84;;;8.45;72.97
44001;BME280;29660;42.892;24.710;2024-03-23T21:02:02;96207.75;;;7.65;74.64
44001;BME280;29660;42.892;24.710;2024-03-23T21:07:26;96351.88;;;8.46;75.32
44001;BME280;29660;42.892;24.710;2024-03-23T21:12:48;96281.00;;;8.03;76.60
44001;BME280;29660;42.892;24.710;2024-03-23T21:18:09;96331.38;;;8.27;77.96
44001;BME280;29660;42.892;24.710;2024-03-23T21:23:30;96326.38;;;8.26;77.96
44001;BME280;29660;42.892;24.710;2024-03-23T21:28:55;96318.97;;;8.23;78.19
44001;BME280;29660;42.892;24.710;2024-03-23T21:34:17;96324.94;;;8.15;78.39
44001;BME280;29660;42.892;24.710;2024-03-23T21:39:38;96313.09;;;8.07;77.35
44001;BME280;29660;42.892;24.710;2024-03-23T21:44:59;96114.97;;;6.79;77.84
44001;BME280;29660;42.892;24.710;2024-03-23T21:50:20;96284.50;;;7.80;77.32
44001;BME280;29660;42.892;24.710;2024-03-23T21:55:51;96115.69;;;6.66;76.61
44001;BME280;29660;42.892;24.710;2024-03-23T22:01:12;96160.41;;;6.91;76.37
44001;BME280;29660;42.892;24.710;2024-03-23T22:06:33;96274.09;;;7.65;77.10
44001;BME280;29660;42.892;24.710;2024-03-23T22:11:55;96211.81;;;7.19;75.24
44001;BME280;29660;42.892;24.710;2024-03-23T22:17:17;96280.75;;;7.62;76.54
44001;BME280;29660;42.892;24.710;2024-03-23T22:22:41;96241.16;;;7.23;77.17
44001;BME280;29660;42.892;24.710;2024-03-23T22:28:02;96274.56;;;7.48;81.98
44001;BME280;29660;42.892;24.710;2024-03-23T22:33:24;96291.44;;;7.33;84.18
44001;BME280;29660;42.892;24.710;2024-03-23T22:38:48;96257.16;;;7.18;83.66
44001;BME280;29660;42.892;24.710;2024-03-23T22:44:09;96279.31;;;7.27;83.96
44001;BME280;29660;42.892;24.710;2024-03-23T22:49:31;96275.44;;;7.19;84.11
44001;BME280;29660;42.892;24.710;2024-03-23T22:54:52;96250.50;;;6.96;84.86
44001;BME280;29660;42.892;24.710;2024-03-23T23:00:13;96136.06;;;6.17;83.34
44001;BME280;29660;42.892;24.710;2024-03-23T23:05:37;96136.38;;;6.10;85.16
44001;BME280;29660;42.892;24.710;2024-03-23T23:10:58;96264.06;;;6.89;87.26
44001;BME280;29660;42.892;24.710;2024-03-23T23:16:19;96266.56;;;6.81;89.02
44001;BME280;29660;42.892;24.710;2024-03-23T23:21:41;96266.31;;;6.77;89.71
44001;BME280;29660;42.892;24.710;2024-03-23T23:27:03;96257.84;;;6.75;89.92
44001;BME280;29660;42.892;24.710;2024-03-23T23:32:24;96255.81;;;6.67;90.13
44001;BME280;29660;42.892;24.710;2024-03-23T23:37:45;96112.84;;;5.75;90.08
44001;BME280;29660;42.892;24.710;2024-03-23T23:43:06;96240.28;;;6.55;89.02
44001;BME280;29660;42.892;24.710;2024-03-23T23:48:27;96113.16;;;5.68;88.40
44001;BME280;29660;42.892;24.710;2024-03-23T23:53:48;96256.00;;;6.12;89.13
44001;BME280;29660;42.892;24.710;2024-03-23T23:59:10;96221.63;;;6.42;89.46
